createdAt,value
2022-10-05T00:01:47.771Z,65.33
2022-10-05T00:04:17.384Z,65.46
2022-10-05T00:06:46.621Z,65.58
2022-10-05T00:09:19.072Z,65.45
2022-10-05T00:11:46.603Z,65.48
2022-10-05T00:14:20.517Z,65.71
2022-10-05T00:16:49.016Z,65.44
2022-10-05T00:19:23.032Z,65.57
2022-10-05T00:21:50.572Z,65.46
2022-10-05T00:24:21.465Z,65.66
2022-10-05T00:26:54.110Z,65.82
2022-10-05T00:29:25.132Z,66.04
2022-10-05T00:31:52.840Z,65.91
2022-10-05T00:34:20.406Z,65.79
2022-10-05T00:36:48.765Z,65.75
2022-10-05T00:39:20.291Z,65.69
2022-10-05T00:42:08.793Z,66.22
2022-10-05T00:44:43.917Z,65.72
2022-10-05T00:47:28.840Z,65.87
2022-10-05T00:50:30.485Z,66.24
2022-10-05T00:53:04.329Z,66.25
2022-10-05T00:55:43.248Z,66.23
2022-10-05T00:58:23.541Z,65.88
2022-10-05T01:01:10.822Z,66.27
2022-10-05T01:03:54.095Z,66.48
2022-10-05T01:06:28.472Z,66.41
2022-10-05T01:09:06.686Z,66.25
2022-10-05T01:11:44.070Z,66.50
2022-10-05T01:14:18.679Z,66.21
2022-10-05T01:16:52.920Z,66.13
2022-10-05T01:19:40.727Z,66.25
2022-10-05T01:22:15.039Z,66.46
2022-10-05T01:24:58.135Z,66.64
2022-10-05T01:27:39.195Z,66.61
2022-10-05T01:30:11.773Z,66.41
2022-10-05T01:32:45.357Z,66.81
2022-10-05T01:35:26.337Z,66.79
2022-10-05T01:38:02.107Z,66.60
2022-10-05T01:40:36.010Z,67.16
2022-10-05T01:43:12.848Z,66.57
2022-10-05T01:45:54.050Z,67.00
2022-10-05T01:48:33.004Z,67.02
2022-10-05T01:51:07.299Z,66.94
2022-10-05T01:53:47.447Z,67.24
2022-10-05T01:56:20.557Z,67.45
2022-10-05T01:58:58.721Z,67.34
2022-10-05T02:01:36.501Z,67.25
2022-10-05T02:04:10.506Z,67.42
2022-10-05T02:06:42.788Z,67.05
2022-10-05T02:09:16.271Z,67.42
2022-10-05T02:11:49.854Z,67.32
2022-10-05T02:14:24.061Z,66.93
2022-10-05T02:16:54.641Z,66.73
2022-10-05T02:19:26.856Z,67.37
2022-10-05T02:22:00.365Z,67.07
2022-10-05T02:24:33.645Z,66.82
2022-10-05T02:27:03.558Z,66.71
2022-10-05T02:29:36.449Z,67.24
2022-10-05T02:32:08.537Z,67.42
2022-10-05T02:34:39.821Z,67.26
2022-10-05T02:37:25.944Z,67.35
2022-10-05T02:40:09.444Z,66.96
2022-10-05T02:42:47.984Z,66.93
2022-10-05T02:45:28.322Z,66.92
2022-10-05T02:48:05.935Z,67.35
2022-10-05T02:50:40.593Z,67.03
2022-10-05T02:53:22.537Z,66.75
2022-10-05T02:56:00.689Z,67.15
2022-10-05T02:58:33.748Z,66.80
2022-10-05T03:01:11.062Z,66.77
2022-10-05T03:03:42.798Z,66.87
2022-10-05T03:06:18.301Z,66.77
2022-10-05T03:08:50.865Z,67.14
2022-10-05T03:11:27.221Z,67.48
2022-10-05T03:14:02.843Z,67.43
2022-10-05T03:16:45.045Z,67.29
2022-10-05T03:19:25.029Z,67.48
2022-10-05T03:21:59.316Z,67.44
2022-10-05T03:24:42.450Z,66.99
2022-10-05T03:27:20.497Z,67.49
2022-10-05T03:29:57.009Z,67.24
2022-10-05T03:32:35.587Z,67.76
2022-10-05T03:35:10.575Z,67.51
2022-10-05T03:37:45.503Z,67.74
2022-10-05T03:40:23.410Z,67.98
2022-10-05T03:42:59.812Z,67.98
2022-10-05T03:45:33.954Z,67.80
2022-10-05T03:48:09.476Z,67.74
2022-10-05T03:50:48.251Z,67.78
2022-10-05T03:53:20.552Z,68.32
2022-10-05T03:55:55.250Z,67.65
2022-10-05T03:58:29.066Z,68.25
2022-10-05T04:01:02.810Z,67.47
2022-10-05T04:03:37.332Z,67.75
2022-10-05T04:06:12.471Z,68.18
2022-10-05T04:08:48.045Z,67.81
2022-10-05T04:11:22.183Z,67.83
2022-10-05T04:13:55.544Z,68.11
2022-10-05T04:16:27.986Z,68.09
2022-10-05T04:19:03.671Z,68.29
2022-10-05T04:21:35.840Z,68.45
2022-10-05T04:24:10.370Z,68.29
2022-10-05T04:26:43.116Z,68.29
2022-10-05T04:29:18.042Z,68.57
2022-10-05T04:32:02.458Z,68.59
2022-10-05T04:34:50.034Z,68.89
2022-10-05T04:37:25.221Z,68.72
2022-10-05T04:40:07.310Z,68.51
2022-10-05T04:42:40.835Z,68.41
2022-10-05T04:45:19.828Z,68.82
2022-10-05T04:48:16.163Z,68.55
2022-10-05T04:50:56.216Z,69.08
2022-10-05T04:53:31.971Z,68.53
2022-10-05T04:56:06.453Z,68.99
2022-10-05T04:58:48.588Z,69.02
2022-10-05T05:01:33.068Z,69.09
2022-10-05T05:04:14.574Z,68.71
2022-10-05T05:06:54.656Z,69.42
2022-10-05T05:09:43.329Z,69.02
2022-10-05T05:12:25.612Z,68.79
2022-10-05T05:15:22.008Z,69.41
2022-10-05T05:18:03.759Z,69.20
2022-10-05T05:20:48.624Z,68.76
2022-10-05T05:23:25.032Z,68.73
2022-10-05T05:26:01.245Z,69.15
2022-10-05T05:28:37.029Z,69.46
2022-10-05T05:31:11.836Z,68.59
2022-10-05T05:33:51.874Z,69.21
2022-10-05T05:36:37.706Z,69.27
2022-10-05T05:39:21.916Z,68.92
2022-10-05T05:41:59.377Z,69.75
2022-10-05T05:44:30.077Z,69.58
2022-10-05T05:47:04.605Z,69.39
2022-10-05T05:49:48.990Z,69.28
2022-10-05T05:52:22.793Z,69.14
2022-10-05T05:54:57.680Z,69.45
2022-10-05T05:57:30.767Z,69.86
2022-10-05T06:00:06.151Z,69.65
2022-10-05T06:03:01.984Z,69.51
2022-10-05T06:05:33.221Z,70.32
2022-10-05T06:08:11.937Z,69.76
2022-10-05T06:10:46.531Z,70.11
2022-10-05T06:13:20.129Z,70.03
2022-10-05T06:15:54.145Z,70.18
2022-10-05T06:18:24.040Z,70.29
2022-10-05T06:21:00.892Z,70.55
2022-10-05T06:23:35.540Z,70.31
2022-10-05T06:26:26.775Z,70.30
2022-10-05T06:28:59.787Z,69.97
2022-10-05T06:31:43.948Z,70.01
2022-10-05T06:34:30.024Z,70.11
2022-10-05T06:37:03.282Z,69.94
2022-10-05T06:40:02.994Z,69.87
2022-10-05T06:42:47.992Z,69.83
2022-10-05T06:45:53.055Z,70.55
2022-10-05T06:48:38.870Z,70.22
2022-10-05T06:51:34.312Z,70.26
2022-10-05T06:54:24.370Z,70.38
2022-10-05T06:56:59.066Z,70.61
2022-10-05T06:59:37.341Z,70.41
2022-10-05T07:02:16.143Z,69.94
2022-10-05T07:04:56.922Z,70.21
2022-10-05T07:07:33.252Z,70.09
2022-10-05T07:10:13.690Z,70.20
2022-10-05T07:12:54.517Z,70.40
2022-10-05T07:15:45.692Z,70.46
2022-10-05T07:18:47.951Z,70.06
2022-10-05T07:21:24.837Z,70.17
2022-10-05T07:24:03.710Z,70.04
2022-10-05T07:26:36.990Z,70.09
2022-10-05T07:29:19.972Z,70.04
2022-10-05T07:31:56.222Z,70.00
2022-10-05T07:34:36.589Z,69.64
2022-10-05T07:37:27.693Z,69.80
2022-10-05T07:40:02.016Z,69.54
2022-10-05T07:42:51.795Z,69.39
2022-10-05T07:45:30.370Z,69.30
2022-10-05T07:48:08.663Z,69.41
2022-10-05T07:50:44.299Z,69.16
2022-10-05T07:53:17.845Z,69.17
2022-10-05T07:55:50.774Z,69.09
2022-10-05T07:58:24.968Z,69.01
2022-10-05T08:01:07.450Z,68.76
2022-10-05T08:03:52.409Z,68.86
2022-10-05T08:06:34.876Z,68.74
2022-10-05T08:09:10.626Z,68.81
2022-10-05T08:11:52.421Z,68.62
2022-10-05T08:14:30.105Z,68.26
2022-10-05T08:17:03.738Z,68.26
2022-10-05T08:19:41.707Z,68.12
2022-10-05T08:22:14.351Z,68.09
2022-10-05T08:24:51.678Z,67.98
2022-10-05T08:27:26.866Z,67.96
2022-10-05T08:30:01.563Z,67.62
2022-10-05T08:32:35.612Z,67.53
2022-10-05T08:35:21.225Z,67.49
2022-10-05T08:37:49.864Z,67.12
2022-10-05T08:40:49.215Z,67.09
2022-10-05T08:43:35.425Z,67.16
2022-10-05T08:46:35.456Z,66.46
2022-10-05T08:49:20.787Z,66.94
2022-10-05T08:52:17.327Z,66.57
2022-10-05T08:54:55.041Z,66.05
2022-10-05T08:58:06.126Z,65.95
2022-10-05T09:00:45.382Z,66.08
2022-10-05T09:03:47.001Z,65.70
2022-10-05T09:06:51.086Z,65.29
2022-10-05T09:10:04.499Z,65.12
2022-10-05T09:12:59.546Z,64.63
2022-10-05T09:16:01.652Z,64.59
2022-10-05T09:18:59.809Z,64.55
2022-10-05T09:21:42.536Z,64.41
2022-10-05T09:24:38.321Z,64.08
2022-10-05T09:27:15.082Z,64.00
2022-10-05T09:30:04.686Z,63.96
2022-10-05T09:33:00.049Z,63.70
2022-10-05T09:35:57.278Z,63.36
2022-10-05T09:38:33.140Z,63.49
2022-10-05T09:41:33.006Z,63.04
2022-10-05T09:44:16.697Z,63.40
2022-10-05T09:46:58.436Z,62.96
2022-10-05T09:50:01.069Z,62.69
2022-10-05T09:52:48.813Z,62.17
2022-10-05T09:55:43.457Z,62.10
2022-10-05T09:58:58.949Z,61.97
2022-10-05T10:01:41.978Z,61.80
2022-10-05T10:04:39.243Z,61.94
2022-10-05T10:07:37.875Z,61.23
2022-10-05T10:10:31.547Z,60.95
2022-10-05T10:13:17.459Z,60.66
2022-10-05T10:16:06.273Z,61.00
2022-10-05T10:18:54.298Z,60.79
2022-10-05T10:21:44.337Z,61.11
2022-10-05T10:24:30.690Z,60.95
2022-10-05T10:27:12.546Z,61.03
2022-10-05T10:30:03.503Z,60.86
2022-10-05T10:33:15.778Z,60.38
2022-10-05T10:35:50.827Z,60.88
2022-10-05T10:46:24.377Z,60.86
2022-10-05T11:16:48.766Z,60.01
2022-10-05T11:20:08.077Z,60.17
2022-10-05T11:23:06.965Z,59.31
2022-10-05T11:26:14.970Z,59.02
2022-10-05T11:29:06.788Z,59.37
2022-10-05T11:31:59.549Z,57.26
2022-10-05T11:34:43.118Z,57.63
2022-10-05T11:37:32.510Z,55.74
2022-10-05T11:40:28.013Z,56.22
2022-10-05T11:43:19.077Z,56.37
2022-10-05T11:46:03.298Z,55.37
2022-10-05T11:48:50.600Z,54.06
2022-10-05T11:51:34.212Z,52.34
2022-10-05T11:54:19.637Z,50.99
2022-10-05T11:56:54.729Z,51.10
2022-10-05T11:59:31.550Z,51.31
2022-10-05T12:02:09.005Z,51.61
2022-10-05T12:04:52.669Z,52.24
2022-10-05T12:07:32.325Z,52.37
2022-10-05T12:10:17.723Z,53.01
2022-10-05T12:12:58.191Z,53.15
2022-10-05T12:18:50.686Z,53.11
2022-10-05T12:21:30.884Z,52.88
2022-10-05T12:24:03.153Z,52.72
2022-10-05T12:26:40.903Z,52.61
2022-10-05T12:29:18.851Z,52.14
2022-10-05T12:32:03.011Z,51.57
2022-10-05T12:34:44.940Z,51.47
2022-10-05T12:37:33.453Z,51.22
2022-10-05T12:40:06.402Z,50.89
2022-10-05T12:42:52.840Z,50.47
2022-10-05T12:45:34.399Z,49.90
2022-10-05T12:48:24.424Z,48.78
2022-10-05T12:51:01.868Z,49.08
2022-10-05T12:53:49.323Z,48.47
2022-10-05T12:56:34.991Z,44.66
2022-10-05T12:59:15.992Z,45.49
2022-10-05T13:02:00.295Z,46.14
2022-10-05T13:04:49.625Z,46.02
2022-10-05T13:07:45.015Z,45.30
2022-10-05T13:10:50.411Z,46.52
2022-10-05T13:13:44.411Z,46.53
2022-10-05T13:16:24.696Z,44.85
2022-10-05T13:19:03.865Z,45.82
2022-10-05T13:21:55.126Z,45.99
2022-10-05T13:24:30.297Z,45.78
2022-10-05T13:27:06.864Z,46.16
2022-10-05T13:29:41.818Z,46.58
2022-10-05T13:32:18.949Z,45.82
2022-10-05T13:34:53.416Z,46.00
2022-10-05T13:37:34.286Z,46.01
2022-10-05T13:40:23.324Z,45.89
2022-10-05T13:42:57.724Z,45.80
2022-10-05T13:45:37.470Z,46.18
2022-10-05T13:48:21.915Z,46.43
2022-10-05T13:50:55.651Z,45.84
2022-10-05T13:53:33.377Z,46.15
2022-10-05T14:00:48.123Z,46.97
2022-10-05T14:23:07.368Z,48.27
2022-10-05T14:30:03.488Z,48.54
2022-10-05T14:32:58.999Z,48.54
2022-10-05T14:35:55.380Z,48.68
2022-10-05T14:38:41.292Z,48.97
2022-10-05T14:49:55.484Z,49.30
2022-10-05T14:56:58.970Z,49.64
2022-10-05T15:00:42.073Z,50.00
2022-10-05T15:03:59.138Z,50.27
2022-10-05T15:07:31.904Z,50.52
2022-10-05T15:10:27.220Z,50.40
2022-10-05T15:12:58.818Z,50.55
2022-10-05T15:15:35.619Z,50.54
2022-10-05T15:18:09.243Z,50.56
2022-10-05T15:20:48.472Z,50.61
2022-10-05T15:23:27.557Z,50.83
2022-10-05T15:30:05.488Z,50.38
2022-10-05T15:32:53.139Z,50.53
2022-10-05T15:35:54.812Z,50.61
2022-10-05T15:38:27.528Z,50.68
2022-10-05T15:41:17.306Z,50.72
2022-10-05T15:44:01.004Z,50.84
2022-10-05T15:46:37.621Z,50.87
2022-10-05T15:49:19.554Z,50.92
2022-10-05T15:52:03.642Z,51.10
2022-10-05T15:54:58.960Z,51.20
2022-10-05T15:57:37.084Z,51.38
2022-10-05T16:00:11.666Z,51.69
2022-10-05T16:02:46.711Z,51.74
2022-10-05T16:05:51.866Z,52.01
2022-10-05T16:08:54.294Z,52.03
2022-10-05T16:12:01.968Z,51.92
2022-10-05T16:14:40.149Z,52.24
2022-10-05T16:17:22.242Z,52.36
2022-10-05T16:20:03.953Z,52.38
2022-10-05T16:22:43.574Z,52.36
2022-10-05T16:25:23.026Z,52.71
2022-10-05T16:28:05.719Z,52.77
2022-10-05T16:30:45.670Z,52.93
2022-10-05T16:33:19.990Z,52.90
2022-10-05T16:36:02.932Z,53.15
2022-10-05T16:38:40.010Z,53.36
2022-10-05T16:41:16.201Z,53.52
2022-10-05T16:43:49.637Z,53.51
2022-10-05T16:46:28.128Z,53.62
2022-10-05T16:49:04.125Z,53.66
2022-10-05T16:51:43.394Z,53.82
2022-10-05T16:54:18.997Z,53.93
2022-10-05T16:56:52.021Z,54.15
2022-10-05T16:59:48.331Z,54.38
2022-10-05T17:02:30.017Z,54.31
2022-10-05T17:05:15.227Z,54.43
2022-10-05T17:07:59.361Z,54.55
2022-10-05T17:10:41.069Z,54.54
2022-10-05T17:13:23.735Z,54.72
2022-10-05T17:16:01.241Z,54.69
2022-10-05T17:18:53.560Z,54.74
2022-10-05T17:21:28.509Z,54.91
2022-10-05T17:24:05.985Z,55.12
2022-10-05T17:26:43.133Z,55.25
2022-10-05T17:29:17.117Z,55.24
2022-10-05T17:32:11.066Z,55.60
2022-10-05T17:34:39.947Z,55.51
2022-10-05T17:37:19.644Z,55.61
2022-10-05T17:39:50.338Z,55.72
2022-10-05T17:42:46.791Z,55.98
2022-10-05T17:45:54.238Z,56.03
2022-10-05T17:49:07.712Z,56.32
2022-10-05T17:52:20.420Z,56.33
2022-10-05T17:55:26.910Z,56.42
2022-10-05T17:58:00.122Z,56.50
2022-10-05T18:00:42.018Z,56.67
2022-10-05T18:03:42.393Z,56.63
2022-10-05T18:06:31.762Z,56.87
2022-10-05T18:09:20.839Z,56.88
2022-10-05T18:12:09.249Z,57.16
2022-10-05T18:14:56.478Z,57.18
2022-10-05T18:17:45.380Z,57.32
2022-10-05T18:20:19.045Z,57.43
2022-10-05T18:22:47.231Z,57.20
2022-10-05T18:25:30.165Z,57.37
2022-10-05T18:28:14.770Z,57.64
2022-10-05T18:30:59.038Z,57.91
2022-10-05T18:33:48.119Z,57.79
2022-10-05T18:36:45.779Z,57.67
2022-10-05T18:39:28.840Z,58.13
2022-10-05T18:42:08.227Z,58.17
2022-10-05T18:44:41.288Z,58.13
2022-10-05T18:47:18.693Z,58.33
2022-10-05T18:49:57.155Z,58.52
2022-10-05T18:52:37.955Z,58.61
2022-10-05T18:55:16.822Z,58.96
2022-10-05T18:58:25.977Z,58.84
2022-10-05T19:01:16.858Z,58.97
2022-10-05T19:03:56.230Z,58.96
2022-10-05T19:06:27.935Z,59.29
2022-10-05T19:09:07.566Z,59.33
2022-10-05T19:11:43.108Z,59.65
2022-10-05T19:14:22.968Z,59.85
2022-10-05T19:17:03.820Z,60.66
2022-10-05T19:19:44.955Z,60.34
2022-10-05T19:22:24.957Z,60.46
2022-10-05T19:25:06.573Z,60.70
2022-10-05T19:27:44.603Z,60.79
2022-10-05T19:30:20.607Z,60.65
2022-10-05T19:33:04.589Z,60.80
2022-10-05T19:35:41.383Z,61.30
2022-10-05T19:38:22.394Z,61.10
2022-10-05T19:40:57.869Z,61.26
2022-10-05T19:43:41.219Z,61.72
2022-10-05T19:46:19.272Z,61.66
2022-10-05T19:48:49.421Z,61.28
2022-10-05T19:51:29.417Z,61.64
2022-10-05T19:53:59.196Z,61.42
2022-10-05T19:56:30.021Z,61.55
2022-10-05T19:59:00.482Z,61.75
2022-10-05T20:01:34.012Z,61.89
2022-10-05T20:04:02.153Z,61.63
2022-10-05T20:06:31.856Z,61.95
2022-10-05T20:09:02.053Z,62.12
2022-10-05T20:11:31.419Z,62.04
2022-10-05T20:14:18.777Z,62.14
2022-10-05T20:17:05.468Z,62.14
2022-10-05T20:19:56.222Z,62.41
2022-10-05T20:22:26.389Z,62.43
2022-10-05T20:24:56.143Z,62.63
2022-10-05T20:27:44.830Z,62.87
2022-10-05T20:30:14.535Z,62.53
2022-10-05T20:32:45.126Z,62.45
2022-10-05T20:35:12.962Z,62.83
2022-10-05T20:37:41.333Z,62.88
2022-10-05T20:40:10.380Z,62.71
2022-10-05T20:42:38.870Z,63.10
2022-10-05T20:45:07.422Z,62.75
2022-10-05T20:47:40.181Z,62.66
2022-10-05T20:50:11.909Z,62.76
2022-10-05T20:52:39.716Z,62.84
2022-10-05T20:55:09.402Z,63.24
2022-10-05T20:57:38.563Z,63.32
2022-10-05T21:00:07.414Z,63.20
2022-10-05T21:02:35.059Z,63.16
2022-10-05T21:05:04.538Z,63.18
2022-10-05T21:07:34.192Z,63.04
2022-10-05T21:10:02.321Z,63.17
2022-10-05T21:12:30.106Z,63.17
2022-10-05T21:14:59.549Z,63.50
2022-10-05T21:17:27.107Z,63.37
2022-10-05T21:19:54.806Z,63.38
2022-10-05T21:22:22.306Z,63.63
2022-10-05T21:24:51.058Z,64.21
2022-10-05T21:27:18.506Z,64.33
2022-10-05T21:29:45.954Z,64.18
2022-10-05T21:32:15.389Z,64.44
2022-10-05T21:34:42.881Z,64.05
2022-10-05T21:37:10.347Z,64.18
2022-10-05T21:39:37.753Z,64.47
2022-10-05T21:42:06.559Z,64.41
2022-10-05T21:44:33.972Z,64.12
2022-10-05T21:47:02.151Z,64.63
2022-10-05T21:49:29.751Z,64.48
2022-10-05T21:51:57.802Z,64.57
2022-10-05T21:54:25.439Z,64.44
2022-10-05T21:56:56.458Z,64.54
2022-10-05T21:59:29.341Z,65.08
2022-10-05T22:01:56.770Z,64.96
2022-10-05T22:04:24.379Z,64.98
2022-10-05T22:06:51.838Z,64.95
2022-10-05T22:09:19.235Z,65.16
2022-10-05T22:11:47.625Z,64.96
2022-10-05T22:14:16.212Z,64.95
2022-10-05T22:16:45.497Z,65.15
2022-10-05T22:19:16.683Z,64.88
2022-10-05T22:21:44.221Z,65.13
2022-10-05T22:24:11.914Z,65.29
2022-10-05T22:26:40.837Z,65.61
2022-10-05T22:29:08.629Z,65.09
2022-10-05T22:31:36.388Z,65.37
2022-10-05T22:34:05.315Z,65.38
2022-10-05T22:36:34.693Z,65.49
2022-10-05T22:39:02.393Z,65.70
2022-10-05T22:41:29.885Z,65.63
2022-10-05T22:43:57.330Z,65.39
2022-10-05T22:46:24.966Z,65.61
2022-10-05T22:48:52.422Z,65.61
2022-10-05T22:51:21.192Z,65.73
2022-10-05T22:53:48.625Z,65.91
2022-10-05T22:56:16.683Z,65.55
2022-10-05T22:58:45.456Z,65.52
2022-10-05T23:01:15.310Z,65.80
2022-10-05T23:03:42.979Z,65.84
2022-10-05T23:06:12.374Z,65.84
2022-10-05T23:08:41.972Z,66.00
2022-10-05T23:11:12.246Z,66.27
2022-10-05T23:13:40.382Z,66.22
2022-10-05T23:16:09.057Z,66.02
2022-10-05T23:18:36.989Z,66.29
2022-10-05T23:21:05.675Z,66.12
2022-10-05T23:23:33.158Z,66.43
2022-10-05T23:26:03.049Z,66.69
2022-10-05T23:28:31.351Z,66.67
2022-10-05T23:31:00.366Z,66.47
2022-10-05T23:33:27.997Z,66.89
2022-10-05T23:36:00.433Z,66.77
2022-10-05T23:38:28.745Z,67.11
2022-10-05T23:40:57.966Z,66.83
2022-10-05T23:43:27.489Z,66.92
2022-10-05T23:45:55.592Z,67.01
2022-10-05T23:48:23.488Z,67.07
2022-10-05T23:50:51.433Z,67.12
2022-10-05T23:53:19.926Z,66.97
2022-10-05T23:55:50.488Z,67.43
2022-10-05T23:58:18.472Z,67.32
